Brandywine, New York
Current Conditions -  °F | °C
As of 2:51 PM on Wednesday 26 Nov 2014 (Local Time) from KALB Reporting Station
Moderate Snow Moderate Snow  
Wind Chill: 24°   Ceiling: 500
Heat Index: 32°   Visibility: 0.25mi
Dew Point: 30°   Wind: 9mph
Humidity: 92%   Direction: 360°N
Pressure: 30.05"   Gusts: NA
Location:  42.7747°N, 73.8974°W
Report Text: KALB 261951Z 36008KT 1/4SM R01/4000VP6000FT SN FG VV005 00/M01 A3005 RMK AO2 SFC VIS 1/2 SLP179 SNINCR 1/4 P0009 T00001011
Loading
Personal Weather Stations






























Interactive Weather Map New forecast layout! Learn more

10-Day Weather Forecast

Advertisements
Track Severe Weather on mobile